sensor_id;sensor_type;location;lat;lon;timestamp;temperature;humidity
45761;DHT22;31471;51.040;14.414;2022-09-09T00:02:20;12.80;99.90
45761;DHT22;31471;51.040;14.414;2022-09-09T00:07:47;12.90;99.90
45761;DHT22;31471;51.040;14.414;2022-09-09T00:12:42;12.80;99.90
45761;DHT22;31471;51.040;14.414;2022-09-09T00:15:14;12.80;99.90
45761;DHT22;31471;51.040;14.414;2022-09-09T00:17:51;12.80;99.90
45761;DHT22;31471;51.040;14.414;2022-09-09T00:20:21;12.70;99.90
45761;DHT22;31471;51.040;14.414;2022-09-09T00:28:02;12.70;99.90
45761;DHT22;31471;51.040;14.414;2022-09-09T00:30:31;12.70;99.90
45761;DHT22;31471;51.040;14.414;2022-09-09T00:33:08;12.70;99.90
45761;DHT22;31471;51.040;14.414;2022-09-09T00:35:37;12.60;99.90
45761;DHT22;31471;51.040;14.414;2022-09-09T00:38:10;12.50;99.90
45761;DHT22;31471;51.040;14.414;2022-09-09T00:40:45;12.50;99.90
45761;DHT22;31471;51.040;14.414;2022-09-09T00:48:18;12.40;99.90
45761;DHT22;31471;51.040;14.414;2022-09-09T00:50:57;12.40;99.90
45761;DHT22;31471;51.040;14.414;2022-09-09T00:53:38;12.30;99.90
45761;DHT22;31471;51.040;14.414;2022-09-09T00:56:14;12.30;99.90
45761;DHT22;31471;51.040;14.414;2022-09-09T00:58:43;12.30;99.90
45761;DHT22;31471;51.040;14.414;2022-09-09T01:01:10;12.10;99.90
45761;DHT22;31471;51.040;14.414;2022-09-09T01:03:38;12.10;99.90
45761;DHT22;31471;51.040;14.414;2022-09-09T01:11:43;12.10;99.90
45761;DHT22;31471;51.040;14.414;2022-09-09T01:14:16;12.00;99.90
45761;DHT22;31471;51.040;14.414;2022-09-09T01:16:45;12.00;99.90
45761;DHT22;31471;51.040;14.414;2022-09-09T01:19:13;12.00;99.90
45761;DHT22;31471;51.040;14.414;2022-09-09T01:21:46;12.00;99.90
45761;DHT22;31471;51.040;14.414;2022-09-09T01:24:22;11.90;99.90
45761;DHT22;31471;51.040;14.414;2022-09-09T01:27:14;11.90;99.90
45761;DHT22;31471;51.040;14.414;2022-09-09T01:29:40;11.90;99.90
45761;DHT22;31471;51.040;14.414;2022-09-09T01:34:51;11.90;99.90
45761;DHT22;31471;51.040;14.414;2022-09-09T01:37:17;11.80;99.90
45761;DHT22;31471;51.040;14.414;2022-09-09T01:39:43;11.80;99.90
45761;DHT22;31471;51.040;14.414;2022-09-09T01:42:12;11.70;99.90
45761;DHT22;31471;51.040;14.414;2022-09-09T01:44:39;11.50;99.90
45761;DHT22;31471;51.040;14.414;2022-09-09T01:47:05;11.50;99.90
45761;DHT22;31471;51.040;14.414;2022-09-09T01:49:31;11.60;99.90
45761;DHT22;31471;51.040;14.414;2022-09-09T01:52:02;11.50;99.90
45761;DHT22;31471;51.040;14.414;2022-09-09T01:54:34;11.50;99.90
45761;DHT22;31471;51.040;14.414;2022-09-09T02:04:56;11.40;99.90
45761;DHT22;31471;51.040;14.414;2022-09-09T02:07:32;11.30;99.90
45761;DHT22;31471;51.040;14.414;2022-09-09T02:10:05;11.30;99.90
45761;DHT22;31471;51.040;14.414;2022-09-09T02:12:34;11.30;99.90
45761;DHT22;31471;51.040;14.414;2022-09-09T02:15:03;11.30;99.90
45761;DHT22;31471;51.040;14.414;2022-09-09T02:17:37;11.30;99.90
45761;DHT22;31471;51.040;14.414;2022-09-09T02:20:13;11.20;99.90
45761;DHT22;31471;51.040;14.414;2022-09-09T02:22:53;11.30;99.90
45761;DHT22;31471;51.040;14.414;2022-09-09T02:25:21;11.20;99.90
45761;DHT22;31471;51.040;14.414;2022-09-09T02:27:49;11.20;99.90
45761;DHT22;31471;51.040;14.414;2022-09-09T02:30:15;11.10;99.90
45761;DHT22;31471;51.040;14.414;2022-09-09T02:32:48;11.10;99.90
45761;DHT22;31471;51.040;14.414;2022-09-09T02:35:17;11.10;99.90
45761;DHT22;31471;51.040;14.414;2022-09-09T02:37:45;11.10;99.90
45761;DHT22;31471;51.040;14.414;2022-09-09T02:40:16;11.10;99.90
45761;DHT22;31471;51.040;14.414;2022-09-09T02:42:46;11.10;99.90
45761;DHT22;31471;51.040;14.414;2022-09-09T02:45:15;11.10;99.90
45761;DHT22;31471;51.040;14.414;2022-09-09T02:50:20;11.00;99.90
45761;DHT22;31471;51.040;14.414;2022-09-09T02:52:59;11.00;99.90
45761;DHT22;31471;51.040;14.414;2022-09-09T02:57:55;11.00;99.90
45761;DHT22;31471;51.040;14.414;2022-09-09T03:00:25;11.00;99.90
45761;DHT22;31471;51.040;14.414;2022-09-09T03:02:54;10.90;99.90
45761;DHT22;31471;51.040;14.414;2022-09-09T03:05:20;10.90;99.90
45761;DHT22;31471;51.040;14.414;2022-09-09T03:07:46;10.80;99.90
45761;DHT22;31471;51.040;14.414;2022-09-09T03:10:11;10.80;99.90
45761;DHT22;31471;51.040;14.414;2022-09-09T03:12:37;10.70;99.90
45761;DHT22;31471;51.040;14.414;2022-09-09T03:15:05;10.80;99.90
45761;DHT22;31471;51.040;14.414;2022-09-09T03:17:30;10.80;99.90
45761;DHT22;31471;51.040;14.414;2022-09-09T03:19:57;10.80;99.90
45761;DHT22;31471;51.040;14.414;2022-09-09T03:22:24;10.70;99.90
45761;DHT22;31471;51.040;14.414;2022-09-09T03:24:51;10.70;99.90
45761;DHT22;31471;51.040;14.414;2022-09-09T03:27:17;10.70;99.90
45761;DHT22;31471;51.040;14.414;2022-09-09T03:29:43;10.70;99.90
45761;DHT22;31471;51.040;14.414;2022-09-09T03:32:13;10.60;99.90
45761;DHT22;31471;51.040;14.414;2022-09-09T03:34:39;10.60;99.90
45761;DHT22;31471;51.040;14.414;2022-09-09T03:37:07;10.60;99.90
45761;DHT22;31471;51.040;14.414;2022-09-09T03:39:33;10.50;99.90
45761;DHT22;31471;51.040;14.414;2022-09-09T03:41:59;10.60;99.90
45761;DHT22;31471;51.040;14.414;2022-09-09T03:44:24;10.50;99.90
45761;DHT22;31471;51.040;14.414;2022-09-09T03:46:50;10.60;99.90
45761;DHT22;31471;51.040;14.414;2022-09-09T03:49:16;10.60;99.90
45761;DHT22;31471;51.040;14.414;2022-09-09T03:51:42;10.60;99.90
45761;DHT22;31471;51.040;14.414;2022-09-09T03:54:09;10.60;99.90
45761;DHT22;31471;51.040;14.414;2022-09-09T03:56:37;10.60;99.90
45761;DHT22;31471;51.040;14.414;2022-09-09T03:59:03;10.50;99.90
45761;DHT22;31471;51.040;14.414;2022-09-09T04:01:28;10.50;99.90
45761;DHT22;31471;51.040;14.414;2022-09-09T04:03:54;10.50;99.90
45761;DHT22;31471;51.040;14.414;2022-09-09T04:06:23;10.50;99.90
45761;DHT22;31471;51.040;14.414;2022-09-09T04:08:49;10.50;99.90
45761;DHT22;31471;51.040;14.414;2022-09-09T04:11:15;10.50;99.90
45761;DHT22;31471;51.040;14.414;2022-09-09T04:13:41;10.50;99.90
45761;DHT22;31471;51.040;14.414;2022-09-09T04:16:10;10.40;99.90
45761;DHT22;31471;51.040;14.414;2022-09-09T04:18:36;10.40;99.90
45761;DHT22;31471;51.040;14.414;2022-09-09T04:21:02;10.40;99.90
45761;DHT22;31471;51.040;14.414;2022-09-09T04:23:31;10.40;99.90
45761;DHT22;31471;51.040;14.414;2022-09-09T04:25:58;10.30;99.90
45761;DHT22;31471;51.040;14.414;2022-09-09T04:28:26;10.40;99.90
45761;DHT22;31471;51.040;14.414;2022-09-09T04:30:52;10.30;99.90
45761;DHT22;31471;51.040;14.414;2022-09-09T04:33:18;10.40;99.90
45761;DHT22;31471;51.040;14.414;2022-09-09T04:35:45;10.40;99.90
45761;DHT22;31471;51.040;14.414;2022-09-09T04:38:10;10.30;99.90
45761;DHT22;31471;51.040;14.414;2022-09-09T04:40:36;10.40;99.90
45761;DHT22;31471;51.040;14.414;2022-09-09T04:43:02;10.40;99.90
45761;DHT22;31471;51.040;14.414;2022-09-09T04:45:30;10.40;99.90
45761;DHT22;31471;51.040;14.414;2022-09-09T04:47:56;10.40;99.90
45761;DHT22;31471;51.040;14.414;2022-09-09T04:50:21;10.40;99.90
45761;DHT22;31471;51.040;14.414;2022-09-09T04:52:47;10.40;99.90
45761;DHT22;31471;51.040;14.414;2022-09-09T04:55:13;10.40;99.90
45761;DHT22;31471;51.040;14.414;2022-09-09T04:57:41;10.40;99.90
45761;DHT22;31471;51.040;14.414;2022-09-09T05:00:10;10.50;99.90
45761;DHT22;31471;51.040;14.414;2022-09-09T05:02:37;10.50;99.90
45761;DHT22;31471;51.040;14.414;2022-09-09T05:05:04;10.50;99.90
45761;DHT22;31471;51.040;14.414;2022-09-09T05:07:30;10.60;99.90
45761;DHT22;31471;51.040;14.414;2022-09-09T05:09:56;10.70;99.90
45761;DHT22;31471;51.040;14.414;2022-09-09T05:12:22;10.80;99.90
45761;DHT22;31471;51.040;14.414;2022-09-09T05:14:50;10.80;99.90
45761;DHT22;31471;51.040;14.414;2022-09-09T05:17:16;10.90;99.90
45761;DHT22;31471;51.040;14.414;2022-09-09T05:19:41;11.00;99.90
45761;DHT22;31471;51.040;14.414;2022-09-09T05:22:07;11.10;99.90
45761;DHT22;31471;51.040;14.414;2022-09-09T05:24:40;11.10;99.90
45761;DHT22;31471;51.040;14.414;2022-09-09T05:27:06;11.20;99.90
45761;DHT22;31471;51.040;14.414;2022-09-09T05:29:32;11.30;99.90
45761;DHT22;31471;51.040;14.414;2022-09-09T05:31:59;11.30;99.90
45761;DHT22;31471;51.040;14.414;2022-09-09T05:34:24;11.40;99.90
45761;DHT22;31471;51.040;14.414;2022-09-09T05:36:50;11.40;99.90
45761;DHT22;31471;51.040;14.414;2022-09-09T05:39:17;11.50;99.90
45761;DHT22;31471;51.040;14.414;2022-09-09T05:41:42;11.60;99.90
45761;DHT22;31471;51.040;14.414;2022-09-09T05:44:08;11.70;99.90
45761;DHT22;31471;51.040;14.414;2022-09-09T05:46:37;11.80;99.90
45761;DHT22;31471;51.040;14.414;2022-09-09T05:49:03;11.90;99.90
45761;DHT22;31471;51.040;14.414;2022-09-09T05:51:31;12.00;99.90
45761;DHT22;31471;51.040;14.414;2022-09-09T05:54:01;12.00;99.90
45761;DHT22;31471;51.040;14.414;2022-09-09T05:56:29;12.10;99.90
45761;DHT22;31471;51.040;14.414;2022-09-09T05:58:57;12.20;99.90
45761;DHT22;31471;51.040;14.414;2022-09-09T06:01:24;12.30;99.90
45761;DHT22;31471;51.040;14.414;2022-09-09T06:03:50;12.50;99.90
45761;DHT22;31471;51.040;14.414;2022-09-09T06:06:18;12.60;99.90
45761;DHT22;31471;51.040;14.414;2022-09-09T06:08:46;12.70;99.90
45761;DHT22;31471;51.040;14.414;2022-09-09T06:11:15;12.80;99.90
45761;DHT22;31471;51.040;14.414;2022-09-09T06:13:42;13.00;99.90
45761;DHT22;31471;51.040;14.414;2022-09-09T06:16:08;13.20;99.90
45761;DHT22;31471;51.040;14.414;2022-09-09T06:18:34;13.30;99.90
45761;DHT22;31471;51.040;14.414;2022-09-09T06:21:00;13.50;99.90
45761;DHT22;31471;51.040;14.414;2022-09-09T06:23:27;13.60;99.90
45761;DHT22;31471;51.040;14.414;2022-09-09T06:26:03;13.80;99.90
45761;DHT22;31471;51.040;14.414;2022-09-09T06:28:31;14.00;99.90
45761;DHT22;31471;51.040;14.414;2022-09-09T06:30:57;14.20;99.90
45761;DHT22;31471;51.040;14.414;2022-09-09T06:33:23;14.40;99.90
45761;DHT22;31471;51.040;14.414;2022-09-09T06:35:52;14.60;99.90
45761;DHT22;31471;51.040;14.414;2022-09-09T06:38:19;14.70;99.90
45761;DHT22;31471;51.040;14.414;2022-09-09T06:40:55;14.90;99.90
45761;DHT22;31471;51.040;14.414;2022-09-09T06:43:22;15.10;99.90
45761;DHT22;31471;51.040;14.414;2022-09-09T06:45:53;15.30;99.90
45761;DHT22;31471;51.040;14.414;2022-09-09T06:48:19;15.50;99.90
45761;DHT22;31471;51.040;14.414;2022-09-09T06:50:45;15.70;99.90
45761;DHT22;31471;51.040;14.414;2022-09-09T06:53:11;15.90;99.90
45761;DHT22;31471;51.040;14.414;2022-09-09T06:55:36;15.90;99.90
45761;DHT22;31471;51.040;14.414;2022-09-09T06:58:07;15.90;99.90
45761;DHT22;31471;51.040;14.414;2022-09-09T07:00:33;15.80;99.90
45761;DHT22;31471;51.040;14.414;2022-09-09T07:02:58;15.80;99.90
45761;DHT22;31471;51.040;14.414;2022-09-09T07:05:24;16.00;99.90
45761;DHT22;31471;51.040;14.414;2022-09-09T07:07:51;16.10;99.90
45761;DHT22;31471;51.040;14.414;2022-09-09T07:10:18;16.20;99.90
45761;DHT22;31471;51.040;14.414;2022-09-09T07:12:44;16.40;99.90
45761;DHT22;31471;51.040;14.414;2022-09-09T07:15:11;16.40;99.90
45761;DHT22;31471;51.040;14.414;2022-09-09T07:17:40;16.60;99.90
45761;DHT22;31471;51.040;14.414;2022-09-09T07:20:06;16.70;99.90
45761;DHT22;31471;51.040;14.414;2022-09-09T07:22:32;16.80;99.90
45761;DHT22;31471;51.040;14.414;2022-09-09T07:24:58;16.80;99.90
45761;DHT22;31471;51.040;14.414;2022-09-09T07:27:24;16.90;99.90
45761;DHT22;31471;51.040;14.414;2022-09-09T07:29:50;17.00;99.90
45761;DHT22;31471;51.040;14.414;2022-09-09T07:32:17;17.10;99.90
45761;DHT22;31471;51.040;14.414;2022-09-09T07:34:43;17.20;99.90
45761;DHT22;31471;51.040;14.414;2022-09-09T07:37:09;17.40;99.90
45761;DHT22;31471;51.040;14.414;2022-09-09T07:39:37;17.40;99.90
45761;DHT22;31471;51.040;14.414;2022-09-09T07:42:02;17.50;99.90
45761;DHT22;31471;51.040;14.414;2022-09-09T07:44:30;17.70;99.90
45761;DHT22;31471;51.040;14.414;2022-09-09T07:47:04;17.80;99.90
45761;DHT22;31471;51.040;14.414;2022-09-09T07:49:36;17.90;99.90
45761;DHT22;31471;51.040;14.414;2022-09-09T07:52:03;18.10;99.90
45761;DHT22;31471;51.040;14.414;2022-09-09T07:54:29;18.10;99.90
45761;DHT22;31471;51.040;14.414;2022-09-09T07:56:56;18.20;99.90
45761;DHT22;31471;51.040;14.414;2022-09-09T07:59:26;18.30;99.90
45761;DHT22;31471;51.040;14.414;2022-09-09T08:01:53;18.50;99.90
45761;DHT22;31471;51.040;14.414;2022-09-09T08:04:21;18.60;99.90
45761;DHT22;31471;51.040;14.414;2022-09-09T08:06:57;18.70;99.90
45761;DHT22;31471;51.040;14.414;2022-09-09T08:09:24;18.80;99.90
45761;DHT22;31471;51.040;14.414;2022-09-09T08:11:52;18.90;99.90
45761;DHT22;31471;51.040;14.414;2022-09-09T08:14:18;18.90;99.90
45761;DHT22;31471;51.040;14.414;2022-09-09T08:16:45;18.90;99.90
45761;DHT22;31471;51.040;14.414;2022-09-09T08:19:14;19.20;99.90
45761;DHT22;31471;51.040;14.414;2022-09-09T08:21:41;19.30;99.90
45761;DHT22;31471;51.040;14.414;2022-09-09T08:24:07;19.40;99.90
45761;DHT22;31471;51.040;14.414;2022-09-09T08:26:34;19.40;99.90
45761;DHT22;31471;51.040;14.414;2022-09-09T08:29:01;19.40;99.90
45761;DHT22;31471;51.040;14.414;2022-09-09T08:31:28;19.30;99.90
45761;DHT22;31471;51.040;14.414;2022-09-09T08:33:54;19.30;99.90
45761;DHT22;31471;51.040;14.414;2022-09-09T08:36:21;19.20;99.90
45761;DHT22;31471;51.040;14.414;2022-09-09T08:38:47;19.30;99.90
45761;DHT22;31471;51.040;14.414;2022-09-09T08:49:36;19.50;99.90
45761;DHT22;31471;51.040;14.414;2022-09-09T08:52:04;19.60;99.90
45761;DHT22;31471;51.040;14.414;2022-09-09T08:54:35;20.00;99.90
45761;DHT22;31471;51.040;14.414;2022-09-09T08:57:02;20.30;99.90
45761;DHT22;31471;51.040;14.414;2022-09-09T08:59:29;20.30;99.90
45761;DHT22;31471;51.040;14.414;2022-09-09T09:06:58;20.90;99.90
45761;DHT22;31471;51.040;14.414;2022-09-09T09:12:16;21.20;99.90
45761;DHT22;31471;51.040;14.414;2022-09-09T09:14:43;21.40;99.90
45761;DHT22;31471;51.040;14.414;2022-09-09T09:17:15;21.60;99.90
45761;DHT22;31471;51.040;14.414;2022-09-09T09:19:42;21.60;99.90
45761;DHT22;31471;51.040;14.414;2022-09-09T09:22:20;21.70;99.90
45761;DHT22;31471;51.040;14.414;2022-09-09T09:24:50;21.70;99.90
45761;DHT22;31471;51.040;14.414;2022-09-09T09:27:39;21.70;99.90
45761;DHT22;31471;51.040;14.414;2022-09-09T09:30:15;21.80;99.90
45761;DHT22;31471;51.040;14.414;2022-09-09T09:32:44;21.80;99.90
45761;DHT22;31471;51.040;14.414;2022-09-09T09:35:13;21.70;99.90
45761;DHT22;31471;51.040;14.414;2022-09-09T09:37:41;21.80;99.90
45761;DHT22;31471;51.040;14.414;2022-09-09T09:42:34;21.80;99.90
45761;DHT22;31471;51.040;14.414;2022-09-09T09:45:07;21.60;99.90
45761;DHT22;31471;51.040;14.414;2022-09-09T09:47:33;21.30;99.90
45761;DHT22;31471;51.040;14.414;2022-09-09T09:50:17;20.90;99.90
45761;DHT22;31471;51.040;14.414;2022-09-09T09:52:51;20.70;99.90
45761;DHT22;31471;51.040;14.414;2022-09-09T09:55:18;20.60;99.90
45761;DHT22;31471;51.040;14.414;2022-09-09T09:57:45;20.60;99.90
45761;DHT22;31471;51.040;14.414;2022-09-09T10:00:16;20.60;99.90
45761;DHT22;31471;51.040;14.414;2022-09-09T10:02:49;21.00;99.90
45761;DHT22;31471;51.040;14.414;2022-09-09T10:05:21;21.10;99.90
45761;DHT22;31471;51.040;14.414;2022-09-09T10:13:27;21.50;99.90
45761;DHT22;31471;51.040;14.414;2022-09-09T10:18:41;22.10;99.90
45761;DHT22;31471;51.040;14.414;2022-09-09T10:23:45;22.40;99.90
45761;DHT22;31471;51.040;14.414;2022-09-09T10:31:38;22.20;99.90
45761;DHT22;31471;51.040;14.414;2022-09-09T10:36:38;22.10;99.90
45761;DHT22;31471;51.040;14.414;2022-09-09T10:39:16;21.90;99.90
45761;DHT22;31471;51.040;14.414;2022-09-09T10:44:24;21.70;99.90
45761;DHT22;31471;51.040;14.414;2022-09-09T10:49:51;21.70;99.90
45761;DHT22;31471;51.040;14.414;2022-09-09T10:52:24;21.80;99.90
45761;DHT22;31471;51.040;14.414;2022-09-09T10:54:58;21.70;99.90
45761;DHT22;31471;51.040;14.414;2022-09-09T10:57:28;21.70;99.90
45761;DHT22;31471;51.040;14.414;2022-09-09T10:59:58;21.50;99.90
45761;DHT22;31471;51.040;14.414;2022-09-09T11:02:27;21.80;99.90
45761;DHT22;31471;51.040;14.414;2022-09-09T11:04:55;21.60;99.90
45761;DHT22;31471;51.040;14.414;2022-09-09T11:10:02;21.80;99.90
45761;DHT22;31471;51.040;14.414;2022-09-09T11:12:31;21.80;99.90
45761;DHT22;31471;51.040;14.414;2022-09-09T11:15:06;21.90;99.90
45761;DHT22;31471;51.040;14.414;2022-09-09T11:20:01;22.20;99.90
45761;DHT22;31471;51.040;14.414;2022-09-09T11:24:57;22.40;99.90
45761;DHT22;31471;51.040;14.414;2022-09-09T11:27:26;22.50;99.90
45761;DHT22;31471;51.040;14.414;2022-09-09T11:30:26;22.90;99.90
45761;DHT22;31471;51.040;14.414;2022-09-09T11:35:29;23.00;99.90
45761;DHT22;31471;51.040;14.414;2022-09-09T11:38:15;23.00;99.90
45761;DHT22;31471;51.040;14.414;2022-09-09T11:40:41;23.20;99.90
45761;DHT22;31471;51.040;14.414;2022-09-09T11:45:37;23.60;99.90
45761;DHT22;31471;51.040;14.414;2022-09-09T11:48:03;23.70;99.90
45761;DHT22;31471;51.040;14.414;2022-09-09T11:50:35;23.80;99.90
45761;DHT22;31471;51.040;14.414;2022-09-09T11:55:39;23.60;99.90
45761;DHT22;31471;51.040;14.414;2022-09-09T12:00:43;23.80;99.90
45761;DHT22;31471;51.040;14.414;2022-09-09T12:03:32;24.00;99.90
45761;DHT22;31471;51.040;14.414;2022-09-09T12:05:56;24.10;99.90
45761;DHT22;31471;51.040;14.414;2022-09-09T12:08:26;24.20;99.90
45761;DHT22;31471;51.040;14.414;2022-09-09T12:10:58;24.60;99.90
45761;DHT22;31471;51.040;14.414;2022-09-09T12:13:25;24.60;99.90
45761;DHT22;31471;51.040;14.414;2022-09-09T12:15:52;24.70;99.90
45761;DHT22;31471;51.040;14.414;2022-09-09T12:18:26;24.80;99.90
45761;DHT22;31471;51.040;14.414;2022-09-09T12:23:48;25.20;99.30
45761;DHT22;31471;51.040;14.414;2022-09-09T12:26:19;25.00;99.90
45761;DHT22;31471;51.040;14.414;2022-09-09T12:28:52;25.00;97.90
45761;DHT22;31471;51.040;14.414;2022-09-09T12:34:04;25.10;98.50
45761;DHT22;31471;51.040;14.414;2022-09-09T12:36:30;25.20;97.70
45761;DHT22;31471;51.040;14.414;2022-09-09T12:38:58;25.30;96.00
45761;DHT22;31471;51.040;14.414;2022-09-09T12:41:26;25.10;94.30
45761;DHT22;31471;51.040;14.414;2022-09-09T12:44:03;25.10;91.90
45761;DHT22;31471;51.040;14.414;2022-09-09T12:48:57;25.10;95.40
45761;DHT22;31471;51.040;14.414;2022-09-09T12:51:27;25.20;95.90
45761;DHT22;31471;51.040;14.414;2022-09-09T12:53:53;25.20;94.80
45761;DHT22;31471;51.040;14.414;2022-09-09T12:56:20;25.50;94.30
45761;DHT22;31471;51.040;14.414;2022-09-09T12:58:47;25.50;94.00
45761;DHT22;31471;51.040;14.414;2022-09-09T13:01:18;25.40;95.10
45761;DHT22;31471;51.040;14.414;2022-09-09T13:03:45;25.60;94.70
45761;DHT22;31471;51.040;14.414;2022-09-09T13:06:13;26.00;94.70
45761;DHT22;31471;51.040;14.414;2022-09-09T13:08:43;26.00;93.60
45761;DHT22;31471;51.040;14.414;2022-09-09T13:11:20;26.10;94.20
45761;DHT22;31471;51.040;14.414;2022-09-09T13:13:50;25.90;91.90
45761;DHT22;31471;51.040;14.414;2022-09-09T13:16:20;26.00;95.00
45761;DHT22;31471;51.040;14.414;2022-09-09T13:18:46;25.40;93.60
45761;DHT22;31471;51.040;14.414;2022-09-09T13:21:11;24.80;91.80
45761;DHT22;31471;51.040;14.414;2022-09-09T13:23:37;24.60;91.70
45761;DHT22;31471;51.040;14.414;2022-09-09T13:26:18;24.50;96.20
45761;DHT22;31471;51.040;14.414;2022-09-09T13:28:46;24.50;92.40
45761;DHT22;31471;51.040;14.414;2022-09-09T13:31:28;24.50;94.00
45761;DHT22;31471;51.040;14.414;2022-09-09T13:33:54;24.10;92.50
45761;DHT22;31471;51.040;14.414;2022-09-09T13:36:29;24.20;95.00
45761;DHT22;31471;51.040;14.414;2022-09-09T13:38:56;24.40;95.70
45761;DHT22;31471;51.040;14.414;2022-09-09T13:41:22;24.30;95.40
45761;DHT22;31471;51.040;14.414;2022-09-09T13:43:50;24.20;94.70
45761;DHT22;31471;51.040;14.414;2022-09-09T13:46:24;24.10;96.60
45761;DHT22;31471;51.040;14.414;2022-09-09T13:48:53;23.80;97.80
45761;DHT22;31471;51.040;14.414;2022-09-09T13:53:53;24.10;99.30
45761;DHT22;31471;51.040;14.414;2022-09-09T13:56:19;24.20;99.60
45761;DHT22;31471;51.040;14.414;2022-09-09T13:58:45;23.80;96.40
45761;DHT22;31471;51.040;14.414;2022-09-09T14:01:10;24.00;99.90
45761;DHT22;31471;51.040;14.414;2022-09-09T14:03:36;23.90;99.90
45761;DHT22;31471;51.040;14.414;2022-09-09T14:06:02;23.90;99.90
45761;DHT22;31471;51.040;14.414;2022-09-09T14:08:27;24.10;99.90
45761;DHT22;31471;51.040;14.414;2022-09-09T14:11:02;24.10;99.90
45761;DHT22;31471;51.040;14.414;2022-09-09T14:13:28;24.40;99.90
45761;DHT22;31471;51.040;14.414;2022-09-09T14:15:53;24.20;99.90
45761;DHT22;31471;51.040;14.414;2022-09-09T14:18:19;23.90;99.90
45761;DHT22;31471;51.040;14.414;2022-09-09T14:20:44;23.90;99.90
45761;DHT22;31471;51.040;14.414;2022-09-09T14:23:11;23.60;99.90
45761;DHT22;31471;51.040;14.414;2022-09-09T14:25:38;23.30;99.90
45761;DHT22;31471;51.040;14.414;2022-09-09T14:28:04;23.60;99.90
45761;DHT22;31471;51.040;14.414;2022-09-09T14:30:29;23.70;99.90
45761;DHT22;31471;51.040;14.414;2022-09-09T14:32:55;23.70;98.30
45761;DHT22;31471;51.040;14.414;2022-09-09T14:35:20;23.80;97.10
45761;DHT22;31471;51.040;14.414;2022-09-09T14:37:47;23.80;97.70
45761;DHT22;31471;51.040;14.414;2022-09-09T14:40:13;23.80;98.50
45761;DHT22;31471;51.040;14.414;2022-09-09T14:42:40;23.70;98.50
45761;DHT22;31471;51.040;14.414;2022-09-09T14:45:06;23.50;99.90
45761;DHT22;31471;51.040;14.414;2022-09-09T14:47:32;23.60;98.40
45761;DHT22;31471;51.040;14.414;2022-09-09T14:49:57;23.70;99.90
45761;DHT22;31471;51.040;14.414;2022-09-09T14:52:23;23.00;99.90
45761;DHT22;31471;51.040;14.414;2022-09-09T14:54:48;22.50;99.90
45761;DHT22;31471;51.040;14.414;2022-09-09T14:57:14;22.40;99.90
45761;DHT22;31471;51.040;14.414;2022-09-09T14:59:40;22.50;99.90
45761;DHT22;31471;51.040;14.414;2022-09-09T15:02:07;22.40;99.90
45761;DHT22;31471;51.040;14.414;2022-09-09T15:04:32;22.40;99.90
45761;DHT22;31471;51.040;14.414;2022-09-09T15:06:58;22.60;99.90
45761;DHT22;31471;51.040;14.414;2022-09-09T15:09:24;22.70;99.90
45761;DHT22;31471;51.040;14.414;2022-09-09T15:11:49;22.50;99.90
45761;DHT22;31471;51.040;14.414;2022-09-09T15:14:15;22.30;99.90
45761;DHT22;31471;51.040;14.414;2022-09-09T15:16:40;22.00;99.90
45761;DHT22;31471;51.040;14.414;2022-09-09T15:19:06;22.00;99.90
45761;DHT22;31471;51.040;14.414;2022-09-09T15:21:33;22.00;99.90
45761;DHT22;31471;51.040;14.414;2022-09-09T15:23:58;21.60;99.90
45761;DHT22;31471;51.040;14.414;2022-09-09T15:26:25;21.20;99.90
45761;DHT22;31471;51.040;14.414;2022-09-09T15:28:51;21.50;99.90
45761;DHT22;31471;51.040;14.414;2022-09-09T15:31:17;21.60;99.90
45761;DHT22;31471;51.040;14.414;2022-09-09T15:33:53;21.60;99.90
45761;DHT22;31471;51.040;14.414;2022-09-09T15:36:26;21.50;99.90
45761;DHT22;31471;51.040;14.414;2022-09-09T15:38:52;21.40;99.90
45761;DHT22;31471;51.040;14.414;2022-09-09T15:41:19;21.40;99.90
45761;DHT22;31471;51.040;14.414;2022-09-09T15:43:45;21.40;99.90
45761;DHT22;31471;51.040;14.414;2022-09-09T15:48:45;21.30;99.90
45761;DHT22;31471;51.040;14.414;2022-09-09T15:51:11;21.20;99.90
45761;DHT22;31471;51.040;14.414;2022-09-09T15:53:37;21.20;99.90
45761;DHT22;31471;51.040;14.414;2022-09-09T15:56:04;20.90;99.90
45761;DHT22;31471;51.040;14.414;2022-09-09T15:58:35;20.60;99.90
45761;DHT22;31471;51.040;14.414;2022-09-09T16:01:04;20.40;99.90
45761;DHT22;31471;51.040;14.414;2022-09-09T16:03:40;20.40;99.90
45761;DHT22;31471;51.040;14.414;2022-09-09T16:06:11;20.10;99.90
45761;DHT22;31471;51.040;14.414;2022-09-09T16:08:38;19.80;99.90
45761;DHT22;31471;51.040;14.414;2022-09-09T16:11:08;19.80;99.90
45761;DHT22;31471;51.040;14.414;2022-09-09T16:13:37;19.90;99.90
45761;DHT22;31471;51.040;14.414;2022-09-09T16:16:05;19.80;99.90
45761;DHT22;31471;51.040;14.414;2022-09-09T16:18:38;19.60;99.90
45761;DHT22;31471;51.040;14.414;2022-09-09T16:21:04;19.50;99.90
45761;DHT22;31471;51.040;14.414;2022-09-09T16:23:33;19.50;99.90
45761;DHT22;31471;51.040;14.414;2022-09-09T16:25:59;19.50;99.90
45761;DHT22;31471;51.040;14.414;2022-09-09T16:28:25;19.40;99.90
45761;DHT22;31471;51.040;14.414;2022-09-09T16:30:50;19.30;99.90
45761;DHT22;31471;51.040;14.414;2022-09-09T16:33:16;19.20;99.90
45761;DHT22;31471;51.040;14.414;2022-09-09T16:35:42;19.10;99.90
45761;DHT22;31471;51.040;14.414;2022-09-09T16:38:07;19.00;99.90
45761;DHT22;31471;51.040;14.414;2022-09-09T16:40:33;18.80;99.90
45761;DHT22;31471;51.040;14.414;2022-09-09T16:42:59;18.90;99.90
45761;DHT22;31471;51.040;14.414;2022-09-09T16:45:25;18.90;99.90
45761;DHT22;31471;51.040;14.414;2022-09-09T16:47:50;19.00;99.90
45761;DHT22;31471;51.040;14.414;2022-09-09T16:50:16;19.00;99.90
45761;DHT22;31471;51.040;14.414;2022-09-09T16:52:41;19.00;99.90
45761;DHT22;31471;51.040;14.414;2022-09-09T16:55:07;19.00;99.90
45761;DHT22;31471;51.040;14.414;2022-09-09T16:57:32;18.90;99.90
45761;DHT22;31471;51.040;14.414;2022-09-09T16:59:58;19.00;99.90
45761;DHT22;31471;51.040;14.414;2022-09-09T17:02:24;18.80;99.90
45761;DHT22;31471;51.040;14.414;2022-09-09T17:04:50;18.60;99.90
45761;DHT22;31471;51.040;14.414;2022-09-09T17:07:16;18.60;99.90
45761;DHT22;31471;51.040;14.414;2022-09-09T17:09:41;18.70;99.90
45761;DHT22;31471;51.040;14.414;2022-09-09T17:12:07;18.80;99.90
45761;DHT22;31471;51.040;14.414;2022-09-09T17:14:33;18.60;99.90